sensor_id;sensor_type;location;lat;lon;timestamp;P1;durP1;ratioP1;P2;durP2;ratioP2
1004;SDS011;491;53.480;10.174;2023-05-21T00:02:22;2.33;;;0.70;;
1004;SDS011;491;53.480;10.174;2023-05-21T00:04:48;1.67;;;0.70;;
1004;SDS011;491;53.480;10.174;2023-05-21T00:07:15;4.33;;;1.43;;
1004;SDS011;491;53.480;10.174;2023-05-21T00:09:41;2.20;;;1.00;;
1004;SDS011;491;53.480;10.174;2023-05-21T00:12:07;2.13;;;0.67;;
1004;SDS011;491;53.480;10.174;2023-05-21T00:14:33;2.30;;;0.70;;
1004;SDS011;491;53.480;10.174;2023-05-21T00:17:00;2.90;;;0.87;;
1004;SDS011;491;53.480;10.174;2023-05-21T00:19:26;1.87;;;0.73;;
1004;SDS011;491;53.480;10.174;2023-05-21T00:21:52;1.93;;;0.60;;
1004;SDS011;491;53.480;10.174;2023-05-21T00:24:18;2.00;;;1.23;;
1004;SDS011;491;53.480;10.174;2023-05-21T00:26:44;2.70;;;0.53;;
1004;SDS011;491;53.480;10.174;2023-05-21T00:29:10;2.70;;;0.80;;
1004;SDS011;491;53.480;10.174;2023-05-21T00:31:36;1.63;;;0.40;;
1004;SDS011;491;53.480;10.174;2023-05-21T00:34:02;3.70;;;0.40;;
1004;SDS011;491;53.480;10.174;2023-05-21T00:36:28;1.70;;;0.63;;
1004;SDS011;491;53.480;10.174;2023-05-21T00:38:55;2.47;;;0.70;;
1004;SDS011;491;53.480;10.174;2023-05-21T00:41:21;1.10;;;0.40;;
1004;SDS011;491;53.480;10.174;2023-05-21T00:43:46;4.93;;;0.67;;
1004;SDS011;491;53.480;10.174;2023-05-21T00:46:13;1.70;;;0.60;;
1004;SDS011;491;53.480;10.174;2023-05-21T00:48:40;2.40;;;1.67;;
1004;SDS011;491;53.480;10.174;2023-05-21T00:51:07;1.97;;;1.13;;
1004;SDS011;491;53.480;10.174;2023-05-21T00:53:33;3.30;;;0.67;;
1004;SDS011;491;53.480;10.174;2023-05-21T00:55:59;2.27;;;0.40;;
1004;SDS011;491;53.480;10.174;2023-05-21T00:58:25;3.00;;;0.90;;
1004;SDS011;491;53.480;10.174;2023-05-21T01:00:52;1.87;;;0.70;;
1004;SDS011;491;53.480;10.174;2023-05-21T01:03:21;1.63;;;0.67;;
1004;SDS011;491;53.480;10.174;2023-05-21T01:05:49;3.50;;;0.77;;
1004;SDS011;491;53.480;10.174;2023-05-21T01:08:17;1.70;;;0.87;;
1004;SDS011;491;53.480;10.174;2023-05-21T01:10:44;1.37;;;0.40;;
1004;SDS011;491;53.480;10.174;2023-05-21T01:13:10;3.00;;;0.70;;
1004;SDS011;491;53.480;10.174;2023-05-21T01:15:36;3.67;;;0.87;;
1004;SDS011;491;53.480;10.174;2023-05-21T01:18:02;1.70;;;0.77;;
1004;SDS011;491;53.480;10.174;2023-05-21T01:20:29;3.27;;;0.97;;
1004;SDS011;491;53.480;10.174;2023-05-21T01:22:56;1.97;;;0.57;;
1004;SDS011;491;53.480;10.174;2023-05-21T01:25:22;1.73;;;0.97;;
1004;SDS011;491;53.480;10.174;2023-05-21T01:27:48;1.30;;;0.50;;
1004;SDS011;491;53.480;10.174;2023-05-21T01:30:15;1.97;;;0.50;;
1004;SDS011;491;53.480;10.174;2023-05-21T01:35:19;2.30;;;0.67;;
1004;SDS011;491;53.480;10.174;2023-05-21T01:42:56;2.87;;;0.80;;
1004;SDS011;491;53.480;10.174;2023-05-21T01:45:23;2.87;;;0.70;;
1004;SDS011;491;53.480;10.174;2023-05-21T01:47:50;2.30;;;1.53;;
1004;SDS011;491;53.480;10.174;2023-05-21T01:50:18;1.33;;;0.50;;
1004;SDS011;491;53.480;10.174;2023-05-21T01:52:52;3.17;;;0.57;;
1004;SDS011;491;53.480;10.174;2023-05-21T01:55:19;1.97;;;0.50;;
1004;SDS011;491;53.480;10.174;2023-05-21T01:57:49;4.23;;;0.90;;
1004;SDS011;491;53.480;10.174;2023-05-21T02:00:15;3.40;;;0.80;;
1004;SDS011;491;53.480;10.174;2023-05-21T02:02:41;4.37;;;0.57;;
1004;SDS011;491;53.480;10.174;2023-05-21T02:05:07;2.30;;;0.60;;
1004;SDS011;491;53.480;10.174;2023-05-21T02:07:33;3.60;;;1.07;;
1004;SDS011;491;53.480;10.174;2023-05-21T02:09:59;3.30;;;0.90;;
1004;SDS011;491;53.480;10.174;2023-05-21T02:12:25;2.43;;;0.93;;
1004;SDS011;491;53.480;10.174;2023-05-21T02:14:52;2.67;;;1.43;;
1004;SDS011;491;53.480;10.174;2023-05-21T02:17:18;1.80;;;0.47;;
1004;SDS011;491;53.480;10.174;2023-05-21T02:19:45;2.10;;;0.63;;
1004;SDS011;491;53.480;10.174;2023-05-21T02:22:11;4.33;;;0.60;;
1004;SDS011;491;53.480;10.174;2023-05-21T02:24:37;2.73;;;0.80;;
1004;SDS011;491;53.480;10.174;2023-05-21T02:27:03;1.53;;;1.00;;
1004;SDS011;491;53.480;10.174;2023-05-21T02:29:30;3.03;;;0.73;;
1004;SDS011;491;53.480;10.174;2023-05-21T02:31:56;0.90;;;0.30;;
1004;SDS011;491;53.480;10.174;2023-05-21T02:34:22;2.83;;;0.77;;
1004;SDS011;491;53.480;10.174;2023-05-21T02:36:48;1.43;;;0.40;;
1004;SDS011;491;53.480;10.174;2023-05-21T02:39:18;2.63;;;0.70;;
1004;SDS011;491;53.480;10.174;2023-05-21T02:41:44;1.37;;;0.57;;
1004;SDS011;491;53.480;10.174;2023-05-21T02:44:11;2.70;;;0.77;;
1004;SDS011;491;53.480;10.174;2023-05-21T02:46:37;1.33;;;0.30;;
1004;SDS011;491;53.480;10.174;2023-05-21T02:49:03;4.97;;;1.67;;
1004;SDS011;491;53.480;10.174;2023-05-21T02:51:28;2.00;;;0.73;;
1004;SDS011;491;53.480;10.174;2023-05-21T02:53:55;1.37;;;1.03;;
1004;SDS011;491;53.480;10.174;2023-05-21T02:56:21;3.10;;;1.37;;
1004;SDS011;491;53.480;10.174;2023-05-21T02:58:47;2.27;;;0.50;;
1004;SDS011;491;53.480;10.174;2023-05-21T03:01:13;2.33;;;0.60;;
1004;SDS011;491;53.480;10.174;2023-05-21T03:03:39;2.23;;;1.10;;
1004;SDS011;491;53.480;10.174;2023-05-21T03:06:05;4.93;;;1.00;;
1004;SDS011;491;53.480;10.174;2023-05-21T03:08:33;1.53;;;0.37;;
1004;SDS011;491;53.480;10.174;2023-05-21T03:11:00;1.40;;;0.67;;
1004;SDS011;491;53.480;10.174;2023-05-21T03:13:26;4.83;;;0.60;;
1004;SDS011;491;53.480;10.174;2023-05-21T03:15:52;3.17;;;1.07;;
1004;SDS011;491;53.480;10.174;2023-05-21T03:18:21;2.83;;;1.17;;
1004;SDS011;491;53.480;10.174;2023-05-21T03:20:47;1.57;;;0.73;;
1004;SDS011;491;53.480;10.174;2023-05-21T03:23:13;2.13;;;0.50;;
1004;SDS011;491;53.480;10.174;2023-05-21T03:25:39;2.70;;;1.03;;
1004;SDS011;491;53.480;10.174;2023-05-21T03:28:05;5.47;;;1.13;;
1004;SDS011;491;53.480;10.174;2023-05-21T03:30:33;1.90;;;0.57;;
1004;SDS011;491;53.480;10.174;2023-05-21T03:33:00;2.30;;;0.80;;
1004;SDS011;491;53.480;10.174;2023-05-21T03:35:27;4.80;;;0.70;;
1004;SDS011;491;53.480;10.174;2023-05-21T03:37:53;2.10;;;1.10;;
1004;SDS011;491;53.480;10.174;2023-05-21T03:40:19;1.93;;;0.80;;
1004;SDS011;491;53.480;10.174;2023-05-21T03:42:45;2.17;;;1.03;;
1004;SDS011;491;53.480;10.174;2023-05-21T03:45:11;2.50;;;0.63;;
1004;SDS011;491;53.480;10.174;2023-05-21T03:47:37;1.97;;;0.97;;
1004;SDS011;491;53.480;10.174;2023-05-21T03:50:03;2.20;;;0.70;;
1004;SDS011;491;53.480;10.174;2023-05-21T03:52:30;2.50;;;1.13;;
1004;SDS011;491;53.480;10.174;2023-05-21T03:54:56;3.63;;;1.17;;
1004;SDS011;491;53.480;10.174;2023-05-21T03:57:22;2.53;;;0.83;;
1004;SDS011;491;53.480;10.174;2023-05-21T03:59:48;2.93;;;0.87;;
1004;SDS011;491;53.480;10.174;2023-05-21T04:02:13;4.40;;;1.00;;
1004;SDS011;491;53.480;10.174;2023-05-21T04:04:39;2.67;;;1.10;;
1004;SDS011;491;53.480;10.174;2023-05-21T04:07:07;2.23;;;0.73;;
1004;SDS011;491;53.480;10.174;2023-05-21T04:09:39;2.10;;;0.67;;
1004;SDS011;491;53.480;10.174;2023-05-21T04:12:05;2.50;;;1.10;;
1004;SDS011;491;53.480;10.174;2023-05-21T04:14:31;1.33;;;1.23;;
1004;SDS011;491;53.480;10.174;2023-05-21T04:16:58;2.10;;;1.30;;
1004;SDS011;491;53.480;10.174;2023-05-21T04:19:24;2.57;;;0.67;;
1004;SDS011;491;53.480;10.174;2023-05-21T04:21:50;1.67;;;0.67;;
1004;SDS011;491;53.480;10.174;2023-05-21T04:24:15;4.50;;;1.40;;
1004;SDS011;491;53.480;10.174;2023-05-21T04:26:41;2.30;;;0.80;;
1004;SDS011;491;53.480;10.174;2023-05-21T04:29:08;3.67;;;0.80;;
1004;SDS011;491;53.480;10.174;2023-05-21T04:31:34;1.90;;;0.93;;
1004;SDS011;491;53.480;10.174;2023-05-21T04:34:00;3.13;;;1.00;;
1004;SDS011;491;53.480;10.174;2023-05-21T04:36:26;5.63;;;1.30;;
1004;SDS011;491;53.480;10.174;2023-05-21T04:38:52;1.53;;;0.97;;
1004;SDS011;491;53.480;10.174;2023-05-21T04:41:18;2.87;;;1.40;;
1004;SDS011;491;53.480;10.174;2023-05-21T04:43:45;3.37;;;1.30;;
1004;SDS011;491;53.480;10.174;2023-05-21T04:46:11;2.00;;;0.93;;
1004;SDS011;491;53.480;10.174;2023-05-21T04:48:37;2.80;;;1.10;;
1004;SDS011;491;53.480;10.174;2023-05-21T04:51:03;2.00;;;0.60;;
1004;SDS011;491;53.480;10.174;2023-05-21T04:53:31;3.10;;;1.03;;
1004;SDS011;491;53.480;10.174;2023-05-21T04:55:59;2.57;;;0.60;;
1004;SDS011;491;53.480;10.174;2023-05-21T04:58:27;4.43;;;1.23;;
1004;SDS011;491;53.480;10.174;2023-05-21T05:00:52;2.17;;;1.17;;
1004;SDS011;491;53.480;10.174;2023-05-21T05:03:19;2.87;;;0.90;;
1004;SDS011;491;53.480;10.174;2023-05-21T05:05:45;4.30;;;1.33;;
1004;SDS011;491;53.480;10.174;2023-05-21T05:08:11;3.47;;;1.20;;
1004;SDS011;491;53.480;10.174;2023-05-21T05:10:37;2.20;;;1.10;;
1004;SDS011;491;53.480;10.174;2023-05-21T05:13:03;1.73;;;0.60;;
1004;SDS011;491;53.480;10.174;2023-05-21T05:15:30;1.90;;;1.07;;
1004;SDS011;491;53.480;10.174;2023-05-21T05:17:56;4.70;;;1.40;;
1004;SDS011;491;53.480;10.174;2023-05-21T05:20:22;2.53;;;1.00;;
1004;SDS011;491;53.480;10.174;2023-05-21T05:22:47;3.40;;;1.50;;
1004;SDS011;491;53.480;10.174;2023-05-21T05:25:13;2.70;;;1.30;;
1004;SDS011;491;53.480;10.174;2023-05-21T05:27:39;3.20;;;1.37;;
1004;SDS011;491;53.480;10.174;2023-05-21T05:30:05;2.53;;;1.23;;
1004;SDS011;491;53.480;10.174;2023-05-21T05:32:31;4.20;;;1.60;;
1004;SDS011;491;53.480;10.174;2023-05-21T05:34:57;2.93;;;1.33;;
1004;SDS011;491;53.480;10.174;2023-05-21T05:37:23;2.80;;;0.90;;
1004;SDS011;491;53.480;10.174;2023-05-21T05:39:49;2.93;;;1.47;;
1004;SDS011;491;53.480;10.174;2023-05-21T05:42:15;5.23;;;1.87;;
1004;SDS011;491;53.480;10.174;2023-05-21T05:44:41;4.50;;;1.87;;
1004;SDS011;491;53.480;10.174;2023-05-21T05:47:07;3.40;;;0.93;;
1004;SDS011;491;53.480;10.174;2023-05-21T05:49:35;2.23;;;1.53;;
1004;SDS011;491;53.480;10.174;2023-05-21T05:52:01;2.73;;;1.40;;
1004;SDS011;491;53.480;10.174;2023-05-21T05:54:27;2.90;;;1.47;;
1004;SDS011;491;53.480;10.174;2023-05-21T05:56:52;4.53;;;1.40;;
1004;SDS011;491;53.480;10.174;2023-05-21T05:59:18;2.90;;;1.70;;
1004;SDS011;491;53.480;10.174;2023-05-21T06:01:44;2.37;;;1.40;;
1004;SDS011;491;53.480;10.174;2023-05-21T06:04:11;3.53;;;1.57;;
1004;SDS011;491;53.480;10.174;2023-05-21T06:06:36;2.57;;;1.83;;
1004;SDS011;491;53.480;10.174;2023-05-21T06:09:02;3.37;;;1.20;;
1004;SDS011;491;53.480;10.174;2023-05-21T06:11:28;3.73;;;2.70;;
1004;SDS011;491;53.480;10.174;2023-05-21T06:13:54;2.77;;;2.00;;
1004;SDS011;491;53.480;10.174;2023-05-21T06:16:20;4.43;;;2.63;;
1004;SDS011;491;53.480;10.174;2023-05-21T06:18:46;2.60;;;1.63;;
1004;SDS011;491;53.480;10.174;2023-05-21T06:21:12;4.10;;;2.03;;
1004;SDS011;491;53.480;10.174;2023-05-21T06:23:38;3.23;;;2.00;;
1004;SDS011;491;53.480;10.174;2023-05-21T06:26:04;2.80;;;2.10;;
1004;SDS011;491;53.480;10.174;2023-05-21T06:28:30;2.43;;;2.00;;
1004;SDS011;491;53.480;10.174;2023-05-21T06:30:56;2.80;;;1.83;;
1004;SDS011;491;53.480;10.174;2023-05-21T06:33:22;2.63;;;1.90;;
1004;SDS011;491;53.480;10.174;2023-05-21T06:35:47;3.23;;;2.60;;
1004;SDS011;491;53.480;10.174;2023-05-21T06:38:13;3.53;;;1.93;;
1004;SDS011;491;53.480;10.174;2023-05-21T06:40:39;4.43;;;2.93;;
1004;SDS011;491;53.480;10.174;2023-05-21T06:43:05;4.40;;;2.67;;
1004;SDS011;491;53.480;10.174;2023-05-21T06:45:31;3.53;;;2.63;;
1004;SDS011;491;53.480;10.174;2023-05-21T06:47:57;4.67;;;2.93;;
1004;SDS011;491;53.480;10.174;2023-05-21T06:50:23;5.70;;;2.63;;
1004;SDS011;491;53.480;10.174;2023-05-21T06:52:49;5.73;;;3.10;;
1004;SDS011;491;53.480;10.174;2023-05-21T06:55:15;4.47;;;2.60;;
1004;SDS011;491;53.480;10.174;2023-05-21T06:57:41;5.03;;;3.43;;
1004;SDS011;491;53.480;10.174;2023-05-21T07:00:07;4.20;;;3.27;;
1004;SDS011;491;53.480;10.174;2023-05-21T07:02:33;5.33;;;3.50;;
1004;SDS011;491;53.480;10.174;2023-05-21T07:05:00;4.27;;;3.17;;
1004;SDS011;491;53.480;10.174;2023-05-21T07:07:26;5.33;;;2.50;;
1004;SDS011;491;53.480;10.174;2023-05-21T07:09:52;6.33;;;3.60;;
1004;SDS011;491;53.480;10.174;2023-05-21T07:12:18;5.10;;;3.67;;
1004;SDS011;491;53.480;10.174;2023-05-21T07:14:44;4.30;;;3.83;;
1004;SDS011;491;53.480;10.174;2023-05-21T07:17:09;5.47;;;3.83;;
1004;SDS011;491;53.480;10.174;2023-05-21T07:19:35;4.67;;;3.30;;
1004;SDS011;491;53.480;10.174;2023-05-21T07:22:02;5.40;;;3.77;;
1004;SDS011;491;53.480;10.174;2023-05-21T07:24:28;4.60;;;3.57;;
1004;SDS011;491;53.480;10.174;2023-05-21T07:26:54;4.37;;;3.40;;
1004;SDS011;491;53.480;10.174;2023-05-21T07:29:19;4.57;;;3.40;;
1004;SDS011;491;53.480;10.174;2023-05-21T07:31:46;3.97;;;3.40;;
1004;SDS011;491;53.480;10.174;2023-05-21T07:34:12;6.03;;;3.30;;
1004;SDS011;491;53.480;10.174;2023-05-21T07:36:38;4.47;;;3.73;;
1004;SDS011;491;53.480;10.174;2023-05-21T07:39:04;4.47;;;3.43;;
1004;SDS011;491;53.480;10.174;2023-05-21T07:41:29;3.37;;;3.00;;
1004;SDS011;491;53.480;10.174;2023-05-21T07:43:56;6.87;;;4.57;;
1004;SDS011;491;53.480;10.174;2023-05-21T07:46:22;4.90;;;4.17;;
1004;SDS011;491;53.480;10.174;2023-05-21T07:48:48;6.63;;;4.73;;
1004;SDS011;491;53.480;10.174;2023-05-21T07:51:14;4.00;;;3.50;;
1004;SDS011;491;53.480;10.174;2023-05-21T07:53:40;4.50;;;4.10;;
1004;SDS011;491;53.480;10.174;2023-05-21T07:56:06;6.60;;;4.30;;
1004;SDS011;491;53.480;10.174;2023-05-21T07:58:32;5.20;;;4.20;;
1004;SDS011;491;53.480;10.174;2023-05-21T08:00:59;5.33;;;4.30;;
1004;SDS011;491;53.480;10.174;2023-05-21T08:03:25;5.10;;;3.40;;
1004;SDS011;491;53.480;10.174;2023-05-21T08:05:54;4.83;;;4.33;;
1004;SDS011;491;53.480;10.174;2023-05-21T08:08:20;7.50;;;6.50;;
1004;SDS011;491;53.480;10.174;2023-05-21T08:10:47;5.10;;;4.70;;
1004;SDS011;491;53.480;10.174;2023-05-21T08:13:13;6.20;;;5.60;;
1004;SDS011;491;53.480;10.174;2023-05-21T08:15:39;6.47;;;4.70;;
1004;SDS011;491;53.480;10.174;2023-05-21T08:18:05;6.67;;;4.90;;
1004;SDS011;491;53.480;10.174;2023-05-21T08:20:31;5.77;;;4.93;;
1004;SDS011;491;53.480;10.174;2023-05-21T08:22:58;8.50;;;5.13;;
1004;SDS011;491;53.480;10.174;2023-05-21T08:25:24;6.10;;;4.20;;
1004;SDS011;491;53.480;10.174;2023-05-21T08:27:50;4.33;;;3.80;;
1004;SDS011;491;53.480;10.174;2023-05-21T08:30:16;8.20;;;5.87;;
1004;SDS011;491;53.480;10.174;2023-05-21T08:32:42;6.27;;;4.83;;
1004;SDS011;491;53.480;10.174;2023-05-21T08:35:08;4.40;;;3.47;;
1004;SDS011;491;53.480;10.174;2023-05-21T08:37:34;4.97;;;4.57;;
1004;SDS011;491;53.480;10.174;2023-05-21T08:40:00;7.07;;;5.03;;
1004;SDS011;491;53.480;10.174;2023-05-21T08:42:28;6.10;;;5.50;;
1004;SDS011;491;53.480;10.174;2023-05-21T08:44:57;5.77;;;5.03;;
1004;SDS011;491;53.480;10.174;2023-05-21T08:47:24;6.50;;;4.07;;
1004;SDS011;491;53.480;10.174;2023-05-21T08:49:51;5.30;;;3.97;;
1004;SDS011;491;53.480;10.174;2023-05-21T08:52:18;8.10;;;5.77;;
1004;SDS011;491;53.480;10.174;2023-05-21T08:54:45;4.60;;;4.10;;
1004;SDS011;491;53.480;10.174;2023-05-21T08:57:11;5.27;;;4.77;;
1004;SDS011;491;53.480;10.174;2023-05-21T08:59:38;7.30;;;5.27;;
1004;SDS011;491;53.480;10.174;2023-05-21T09:02:08;5.97;;;5.30;;
1004;SDS011;491;53.480;10.174;2023-05-21T09:04:36;7.27;;;5.33;;
1004;SDS011;491;53.480;10.174;2023-05-21T09:07:02;6.13;;;5.00;;
1004;SDS011;491;53.480;10.174;2023-05-21T09:09:32;5.07;;;4.60;;
1004;SDS011;491;53.480;10.174;2023-05-21T09:11:58;8.00;;;5.73;;
1004;SDS011;491;53.480;10.174;2023-05-21T09:14:25;6.03;;;4.40;;
1004;SDS011;491;53.480;10.174;2023-05-21T09:16:51;5.70;;;4.90;;
1004;SDS011;491;53.480;10.174;2023-05-21T09:19:19;7.00;;;5.23;;
1004;SDS011;491;53.480;10.174;2023-05-21T09:21:46;7.90;;;7.10;;
1004;SDS011;491;53.480;10.174;2023-05-21T09:24:12;6.23;;;5.63;;
1004;SDS011;491;53.480;10.174;2023-05-21T09:26:41;5.63;;;5.13;;
1004;SDS011;491;53.480;10.174;2023-05-21T09:29:07;5.90;;;5.30;;
1004;SDS011;491;53.480;10.174;2023-05-21T09:31:33;7.07;;;6.30;;
1004;SDS011;491;53.480;10.174;2023-05-21T09:33:59;7.40;;;5.60;;
1004;SDS011;491;53.480;10.174;2023-05-21T09:36:25;7.70;;;5.80;;
1004;SDS011;491;53.480;10.174;2023-05-21T09:38:53;7.30;;;6.60;;
1004;SDS011;491;53.480;10.174;2023-05-21T09:41:19;6.63;;;5.93;;
1004;SDS011;491;53.480;10.174;2023-05-21T09:43:45;6.80;;;6.20;;
1004;SDS011;491;53.480;10.174;2023-05-21T09:46:11;7.47;;;6.40;;
1004;SDS011;491;53.480;10.174;2023-05-21T09:53:33;8.10;;;7.23;;
1004;SDS011;491;53.480;10.174;2023-05-21T09:55:59;7.90;;;7.13;;
1004;SDS011;491;53.480;10.174;2023-05-21T09:58:25;6.80;;;6.17;;
1004;SDS011;491;53.480;10.174;2023-05-21T10:00:51;6.50;;;6.00;;
1004;SDS011;491;53.480;10.174;2023-05-21T10:03:17;6.20;;;5.67;;
1004;SDS011;491;53.480;10.174;2023-05-21T10:05:46;7.50;;;6.90;;
1004;SDS011;491;53.480;10.174;2023-05-21T10:08:13;7.63;;;6.97;;
1004;SDS011;491;53.480;10.174;2023-05-21T10:10:39;6.57;;;6.00;;
1004;SDS011;491;53.480;10.174;2023-05-21T10:13:07;6.77;;;6.17;;
1004;SDS011;491;53.480;10.174;2023-05-21T10:15:37;6.77;;;6.27;;
1004;SDS011;491;53.480;10.174;2023-05-21T10:18:03;6.87;;;6.17;;
1004;SDS011;491;53.480;10.174;2023-05-21T10:20:30;6.77;;;6.20;;
1004;SDS011;491;53.480;10.174;2023-05-21T10:22:56;6.73;;;6.10;;
1004;SDS011;491;53.480;10.174;2023-05-21T10:25:23;6.83;;;6.23;;
1004;SDS011;491;53.480;10.174;2023-05-21T10:27:50;6.27;;;5.57;;
1004;SDS011;491;53.480;10.174;2023-05-21T10:30:16;6.13;;;5.57;;
1004;SDS011;491;53.480;10.174;2023-05-21T10:32:42;7.37;;;6.70;;
1004;SDS011;491;53.480;10.174;2023-05-21T10:35:08;7.60;;;6.80;;
1004;SDS011;491;53.480;10.174;2023-05-21T10:37:40;6.13;;;5.63;;
1004;SDS011;491;53.480;10.174;2023-05-21T10:40:07;6.20;;;5.60;;
1004;SDS011;491;53.480;10.174;2023-05-21T10:57:45;7.03;;;6.43;;
1004;SDS011;491;53.480;10.174;2023-05-21T11:00:14;9.43;;;8.73;;
1004;SDS011;491;53.480;10.174;2023-05-21T11:02:47;7.53;;;6.90;;
1004;SDS011;491;53.480;10.174;2023-05-21T11:05:13;7.97;;;7.37;;
1004;SDS011;491;53.480;10.174;2023-05-21T11:07:57;6.77;;;6.10;;
1004;SDS011;491;53.480;10.174;2023-05-21T11:13:04;7.63;;;7.03;;
1004;SDS011;491;53.480;10.174;2023-05-21T11:15:30;7.50;;;6.73;;
1004;SDS011;491;53.480;10.174;2023-05-21T11:18:16;6.43;;;5.93;;
1004;SDS011;491;53.480;10.174;2023-05-21T11:20:43;5.47;;;4.97;;
1004;SDS011;491;53.480;10.174;2023-05-21T11:23:15;6.83;;;6.27;;
1004;SDS011;491;53.480;10.174;2023-05-21T11:25:41;7.23;;;6.57;;
1004;SDS011;491;53.480;10.174;2023-05-21T11:28:07;7.47;;;6.87;;
1004;SDS011;491;53.480;10.174;2023-05-21T11:30:33;6.77;;;6.20;;
1004;SDS011;491;53.480;10.174;2023-05-21T11:38:09;7.93;;;7.33;;
1004;SDS011;491;53.480;10.174;2023-05-21T11:40:36;7.07;;;6.47;;
1004;SDS011;491;53.480;10.174;2023-05-21T11:43:02;7.30;;;6.60;;
1004;SDS011;491;53.480;10.174;2023-05-21T11:45:28;7.20;;;6.50;;
1004;SDS011;491;53.480;10.174;2023-05-21T11:47:55;6.23;;;5.80;;
1004;SDS011;491;53.480;10.174;2023-05-21T11:50:21;8.00;;;7.30;;
1004;SDS011;491;53.480;10.174;2023-05-21T11:52:47;6.47;;;5.87;;
1004;SDS011;491;53.480;10.174;2023-05-21T11:55:13;6.20;;;5.80;;
1004;SDS011;491;53.480;10.174;2023-05-21T11:57:42;6.97;;;6.37;;
1004;SDS011;491;53.480;10.174;2023-05-21T12:00:12;7.50;;;6.77;;
1004;SDS011;491;53.480;10.174;2023-05-21T12:03:00;7.27;;;6.67;;
1004;SDS011;491;53.480;10.174;2023-05-21T12:05:25;5.83;;;5.33;;
1004;SDS011;491;53.480;10.174;2023-05-21T12:07:51;7.03;;;6.37;;
1004;SDS011;491;53.480;10.174;2023-05-21T12:10:19;8.23;;;7.43;;
1004;SDS011;491;53.480;10.174;2023-05-21T12:12:46;51.17;;;38.67;;
1004;SDS011;491;53.480;10.174;2023-05-21T12:15:11;34.03;;;28.63;;
1004;SDS011;491;53.480;10.174;2023-05-21T12:17:38;16.03;;;14.47;;
1004;SDS011;491;53.480;10.174;2023-05-21T12:20:05;11.77;;;10.57;;
1004;SDS011;491;53.480;10.174;2023-05-21T12:22:32;12.40;;;10.17;;
1004;SDS011;491;53.480;10.174;2023-05-21T12:24:58;7.20;;;6.40;;
1004;SDS011;491;53.480;10.174;2023-05-21T12:27:24;8.37;;;7.47;;
1004;SDS011;491;53.480;10.174;2023-05-21T12:29:52;12.07;;;10.30;;
1004;SDS011;491;53.480;10.174;2023-05-21T12:32:18;7.90;;;7.20;;
1004;SDS011;491;53.480;10.174;2023-05-21T12:34:45;7.97;;;6.27;;
1004;SDS011;491;53.480;10.174;2023-05-21T12:37:13;7.63;;;6.97;;
1004;SDS011;491;53.480;10.174;2023-05-21T12:39:41;6.93;;;6.30;;
1004;SDS011;491;53.480;10.174;2023-05-21T12:42:14;7.57;;;6.90;;
1004;SDS011;491;53.480;10.174;2023-05-21T12:44:44;7.30;;;6.70;;
1004;SDS011;491;53.480;10.174;2023-05-21T12:47:11;8.07;;;7.00;;
1004;SDS011;491;53.480;10.174;2023-05-21T12:49:40;8.20;;;7.50;;
1004;SDS011;491;53.480;10.174;2023-05-21T12:52:07;7.37;;;6.70;;
1004;SDS011;491;53.480;10.174;2023-05-21T12:54:36;7.87;;;7.20;;
1004;SDS011;491;53.480;10.174;2023-05-21T12:57:09;6.50;;;6.00;;
1004;SDS011;491;53.480;10.174;2023-05-21T13:02:26;6.93;;;6.33;;
1004;SDS011;491;53.480;10.174;2023-05-21T13:05:02;6.97;;;6.40;;
1004;SDS011;491;53.480;10.174;2023-05-21T13:07:29;6.53;;;5.80;;
1004;SDS011;491;53.480;10.174;2023-05-21T13:09:55;7.83;;;6.97;;
1004;SDS011;491;53.480;10.174;2023-05-21T13:12:22;7.33;;;6.60;;
1004;SDS011;491;53.480;10.174;2023-05-21T13:14:49;7.00;;;6.40;;
1004;SDS011;491;53.480;10.174;2023-05-21T13:17:15;9.30;;;5.90;;
1004;SDS011;491;53.480;10.174;2023-05-21T13:19:45;6.53;;;5.83;;
1004;SDS011;491;53.480;10.174;2023-05-21T13:22:11;6.20;;;5.03;;
1004;SDS011;491;53.480;10.174;2023-05-21T13:24:37;8.40;;;6.73;;
1004;SDS011;491;53.480;10.174;2023-05-21T13:27:03;5.97;;;5.47;;
1004;SDS011;491;53.480;10.174;2023-05-21T13:29:35;5.80;;;5.30;;
1004;SDS011;491;53.480;10.174;2023-05-21T13:32:02;6.33;;;5.73;;
1004;SDS011;491;53.480;10.174;2023-05-21T13:34:28;5.20;;;4.70;;
1004;SDS011;491;53.480;10.174;2023-05-21T13:36:53;5.90;;;5.30;;
1004;SDS011;491;53.480;10.174;2023-05-21T13:39:22;5.27;;;4.77;;
1004;SDS011;491;53.480;10.174;2023-05-21T13:41:51;6.47;;;5.87;;
1004;SDS011;491;53.480;10.174;2023-05-21T13:44:17;6.37;;;5.50;;
1004;SDS011;491;53.480;10.174;2023-05-21T13:46:43;5.33;;;4.83;;
1004;SDS011;491;53.480;10.174;2023-05-21T13:49:09;5.73;;;5.20;;
1004;SDS011;491;53.480;10.174;2023-05-21T13:51:35;6.27;;;5.33;;
1004;SDS011;491;53.480;10.174;2023-05-21T13:54:02;5.33;;;4.93;;
1004;SDS011;491;53.480;10.174;2023-05-21T13:56:28;5.20;;;4.80;;
1004;SDS011;491;53.480;10.174;2023-05-21T13:58:56;5.27;;;4.77;;
1004;SDS011;491;53.480;10.174;2023-05-21T14:01:22;4.53;;;4.10;;
1004;SDS011;491;53.480;10.174;2023-05-21T14:03:48;5.37;;;4.87;;
1004;SDS011;491;53.480;10.174;2023-05-21T14:06:14;5.67;;;4.63;;
1004;SDS011;491;53.480;10.174;2023-05-21T14:08:40;4.30;;;3.90;;
1004;SDS011;491;53.480;10.174;2023-05-21T14:11:06;5.57;;;4.83;;
1004;SDS011;491;53.480;10.174;2023-05-21T14:13:32;4.50;;;4.10;;
1004;SDS011;491;53.480;10.174;2023-05-21T14:15:58;4.30;;;3.90;;
1004;SDS011;491;53.480;10.174;2023-05-21T14:18:24;6.23;;;4.57;;
1004;SDS011;491;53.480;10.174;2023-05-21T14:20:50;4.40;;;4.00;;
1004;SDS011;491;53.480;10.174;2023-05-21T14:23:18;3.60;;;3.30;;
1004;SDS011;491;53.480;10.174;2023-05-21T14:25:44;4.80;;;4.10;;
1004;SDS011;491;53.480;10.174;2023-05-21T14:28:10;5.20;;;4.80;;
1004;SDS011;491;53.480;10.174;2023-05-21T14:30:36;5.40;;;5.00;;
1004;SDS011;491;53.480;10.174;2023-05-21T14:33:02;6.40;;;4.80;;
1004;SDS011;491;53.480;10.174;2023-05-21T14:35:28;4.50;;;4.10;;
1004;SDS011;491;53.480;10.174;2023-05-21T14:37:54;4.07;;;3.77;;
1004;SDS011;491;53.480;10.174;2023-05-21T14:40:20;5.30;;;4.20;;
1004;SDS011;491;53.480;10.174;2023-05-21T14:42:46;5.97;;;5.27;;
1004;SDS011;491;53.480;10.174;2023-05-21T14:45:12;4.80;;;4.30;;
1004;SDS011;491;53.480;10.174;2023-05-21T14:47:38;5.80;;;4.70;;
1004;SDS011;491;53.480;10.174;2023-05-21T14:50:04;4.67;;;4.27;;
1004;SDS011;491;53.480;10.174;2023-05-21T14:52:30;5.07;;;4.60;;
1004;SDS011;491;53.480;10.174;2023-05-21T14:54:56;4.67;;;4.27;;
1004;SDS011;491;53.480;10.174;2023-05-21T14:57:22;4.40;;;4.00;;
1004;SDS011;491;53.480;10.174;2023-05-21T14:59:48;5.50;;;5.00;;
1004;SDS011;491;53.480;10.174;2023-05-21T15:02:14;5.13;;;4.73;;
1004;SDS011;491;53.480;10.174;2023-05-21T15:04:40;4.90;;;4.50;;
1004;SDS011;491;53.480;10.174;2023-05-21T15:07:05;4.67;;;4.27;;
1004;SDS011;491;53.480;10.174;2023-05-21T15:09:31;6.20;;;5.70;;
1004;SDS011;491;53.480;10.174;2023-05-21T15:11:57;4.80;;;4.50;;
1004;SDS011;491;53.480;10.174;2023-05-21T15:14:23;6.07;;;5.57;;
1004;SDS011;491;53.480;10.174;2023-05-21T15:16:49;5.33;;;4.83;;
1004;SDS011;491;53.480;10.174;2023-05-21T15:19:15;5.47;;;4.93;;
1004;SDS011;491;53.480;10.174;2023-05-21T15:21:41;5.70;;;5.20;;
1004;SDS011;491;53.480;10.174;2023-05-21T15:24:07;4.77;;;4.33;;
1004;SDS011;491;53.480;10.174;2023-05-21T15:26:33;5.03;;;4.50;;
1004;SDS011;491;53.480;10.174;2023-05-21T15:28:59;5.67;;;5.17;;
1004;SDS011;491;53.480;10.174;2023-05-21T15:31:29;5.77;;;5.23;;
1004;SDS011;491;53.480;10.174;2023-05-21T15:33:55;6.13;;;5.57;;
1004;SDS011;491;53.480;10.174;2023-05-21T15:36:22;5.13;;;4.63;;
1004;SDS011;491;53.480;10.174;2023-05-21T15:38:47;4.70;;;4.23;;
1004;SDS011;491;53.480;10.174;2023-05-21T15:41:13;5.03;;;4.63;;
1004;SDS011;491;53.480;10.174;2023-05-21T15:43:39;6.43;;;5.13;;
1004;SDS011;491;53.480;10.174;2023-05-21T15:46:06;4.37;;;3.93;;
1004;SDS011;491;53.480;10.174;2023-05-21T15:48:32;6.20;;;4.70;;
1004;SDS011;491;53.480;10.174;2023-05-21T15:50:57;5.10;;;4.60;;